Time;durP1;ratioP1;P1;durP2;ratioP2;P2;SDS_P1;SDS_P2;PMS_P1;PMS_P2;Temp;Humidity;BMP_temperature;BMP_pressure;BME280_temperature;BME280_humidity;BME280_pressure;Samples;Min_cycle;Max_cycle;Signal;HPM_P1;HPM_P2
2021/12/24 06:49:34;;;;;;;13.52;10.23;;;;;;;;;;10555596;27;20460;-82
2021/12/24 06:54:53;;;;;;;21.50;14.18;;;;;;;;;;10554424;28;20482;-83
2021/12/24 06:59:59;;;;;;;13.27;10.63;;;;;;;;;;10557824;28;20395;-83
2021/12/24 07:05:10;;;;;;;15.02;10.18;;;;;;;;;;10558620;28;20032;-81
2021/12/24 07:10:21;;;;;;;19.13;14.77;;;;;;;;;;10574139;28;20039;-81
2021/12/24 07:15:22;;;;;;;20.13;14.27;;;;;;;;;;10595909;28;20052;-82
2021/12/24 07:20:42;;;;;;;18.35;12.63;;;;;;;;;;10584740;28;20043;-82
2021/12/24 07:25:46;;;;;;;16.48;12.23;;;;;;;;;;10606224;28;20076;-82
2021/12/24 07:30:47;;;;;;;16.08;10.45;;;;;;;;;;10622555;28;20023;-82
2021/12/24 07:36:07;;;;;;;23.75;16.15;;;;;;;;;;10648935;28;20118;-81
2021/12/24 07:41:08;;;;;;;22.90;15.10;;;;;;;;;;10621482;28;20038;-83
2021/12/24 07:46:09;;;;;;;;;;;;;;;;;;10632180;28;20031;-83
2021/12/24 07:56:33;;;;;;;17.33;12.13;;;;;;;;;;10640547;28;20027;-83
2021/12/24 08:01:38;;;;;;;7.20;5.65;;;;;;;;;;10598453;28;20114;-86
2021/12/24 08:06:51;;;;;;;10.05;6.50;;;;;;;;;;10609146;28;20130;-85
2021/12/24 08:11:52;;;;;;;11.45;6.65;;;;;;;;;;10587340;28;20027;-84
2021/12/24 08:16:53;;;;;;;9.07;6.35;;;;;;;;;;10584524;28;20086;-82
2021/12/24 08:21:54;;;;;;;;;;;;;;;;;;10584578;28;20024;-82
2021/12/24 08:26:55;;;;;;;13.75;6.75;;;;;;;;;;10584039;28;20361;-83
2021/12/24 08:31:56;;;;;;;;;;;;;;;;;;10586161;28;20032;-82
2021/12/24 08:36:57;;;;;;;9.02;5.82;;;;;;;;;;10584800;28;19920;-82
2021/12/24 08:41:58;;;;;;;11.13;7.70;;;;;;;;;;10584324;28;20030;-83
2021/12/24 08:47:04;;;;;;;;;;;;;;;;;;10604431;22;20042;-80
2021/12/24 08:52:05;;;;;;;13.32;5.78;;;;;;;;;;10577807;28;20280;-80
2021/12/24 08:57:06;;;;;;;13.68;7.80;;;;;;;;;;10580046;28;20031;-84
2021/12/24 09:02:07;;;;;;;;;;;;;;;;;;10581222;28;20110;-83
2021/12/24 09:07:08;;;;;;;10.45;7.05;;;;;;;;;;10596697;28;19904;-83
2021/12/24 09:12:09;;;;;;;11.73;7.38;;;;;;;;;;10576373;28;20038;-83
2021/12/24 09:17:10;;;;;;;9.30;6.72;;;;;;;;;;10578252;28;20024;-82
2021/12/24 09:22:16;;;;;;;10.05;6.55;;;;;;;;;;10579859;28;20031;-82
2021/12/24 09:27:17;;;;;;;10.45;6.90;;;;;;;;;;10579272;28;20031;-84
2021/12/24 09:32:18;;;;;;;;;;;;;;;;;;10579147;28;20496;-82
2021/12/24 09:37:19;;;;;;;13.38;7.75;;;;;;;;;;10576655;28;19907;-82
2021/12/24 09:42:20;;;;;;;;;;;;;;;;;;10597342;28;20058;-81
2021/12/24 09:47:23;;;;;;;15.27;7.68;;;;;;;;;;10578673;28;19918;-82
2021/12/24 09:52:24;;;;;;;14.10;8.20;;;;;;;;;;10579426;28;20515;-82
2021/12/24 09:57:25;;;;;;;11.30;7.68;;;;;;;;;;10579897;28;20464;-82
2021/12/24 10:02:28;;;;;;;;;;;;;;;;;;10577630;28;20039;-82
2021/12/24 10:07:37;;;;;;;10.30;7.80;;;;;;;;;;10579248;28;19960;-82
2021/12/24 10:12:38;;;;;;;11.85;7.90;;;;;;;;;;10578544;28;20028;-84
2021/12/24 10:17:40;;;;;;;;;;;;;;;;;;10579083;28;20023;-83
2021/12/24 10:22:42;;;;;;;11.00;7.78;;;;;;;;;;10579512;28;19904;-83
2021/12/24 10:27:45;;;;;;;14.48;9.80;;;;;;;;;;10621636;27;20038;-83
2021/12/24 10:32:46;;;;;;;14.07;9.65;;;;;;;;;;10578028;28;20024;-83
2021/12/24 10:37:47;;;;;;;;;;;;;;;;;;10580202;28;20035;-84
2021/12/24 10:42:50;;;;;;;21.75;13.57;;;;;;;;;;10576296;28;19903;-84
2021/12/24 10:47:51;;;;;;;20.23;13.07;;;;;;;;;;10577857;28;20035;-83
2021/12/24 10:57:57;;;;;;;14.82;10.50;;;;;;;;;;10593541;28;19915;-81
2021/12/24 11:03:03;;;;;;;15.07;9.82;;;;;;;;;;10575159;28;20074;-81
2021/12/24 11:08:06;;;;;;;14.68;9.30;;;;;;;;;;10575562;28;20509;-81
2021/12/24 11:13:10;;;;;;;18.05;13.13;;;;;;;;;;10576638;28;20081;-80
2021/12/24 11:18:16;;;;;;;15.23;9.50;;;;;;;;;;10573779;28;20031;-80
2021/12/24 11:23:19;;;;;;;15.23;10.25;;;;;;;;;;10575287;28;20110;-81
2021/12/24 11:28:21;;;;;;;16.95;9.60;;;;;;;;;;10574775;28;20027;-81
2021/12/24 11:33:24;;;;;;;18.38;12.32;;;;;;;;;;10578234;28;20028;-81
2021/12/24 11:38:30;;;;;;;13.82;9.50;;;;;;;;;;10581565;28;20031;-80
2021/12/24 11:43:34;;;;;;;21.27;13.35;;;;;;;;;;10599671;28;20034;-84
2021/12/24 11:48:36;;;;;;;10.95;6.55;;;;;;;;;;10584672;28;20069;-81
2021/12/24 11:53:38;;;;;;;15.77;10.73;;;;;;;;;;10581989;28;20362;-82
2021/12/24 11:59:10;;;;;;;15.07;7.13;;;;;;;;;;10598523;28;20106;-82
2021/12/24 12:04:22;;;;;;;12.25;8.02;;;;;;;;;;10578781;28;20024;-80
2021/12/24 12:09:39;;;;;;;16.05;9.77;;;;;;;;;;10579581;28;20031;-79
2021/12/24 12:14:42;;;;;;;17.17;10.55;;;;;;;;;;10578336;28;20084;-80
2021/12/24 12:20:00;;;;;;;11.60;7.68;;;;;;;;;;10607834;28;20019;-80
2021/12/24 12:25:03;;;;;;;19.35;11.40;;;;;;;;;;10579524;28;20030;-81
2021/12/24 12:30:23;;;;;;;15.35;10.73;;;;;;;;;;10587763;28;20043;-81
2021/12/24 12:35:45;;;;;;;11.93;7.80;;;;;;;;;;10584604;28;20028;-80
2021/12/24 12:40:48;;;;;;;15.57;10.65;;;;;;;;;;10578777;28;20061;-80
2021/12/24 12:45:55;;;;;;;14.07;9.80;;;;;;;;;;10610714;28;20046;-79
2021/12/24 12:50:58;;;;;;;16.50;9.88;;;;;;;;;;10585167;28;20059;-79
2021/12/24 12:56:17;;;;;;;16.10;10.48;;;;;;;;;;10591706;28;20469;-79
2021/12/24 13:01:21;;;;;;;18.05;12.48;;;;;;;;;;10574261;28;20032;-80
2021/12/24 13:12:45;;;;;;;16.73;11.10;;;;;;;;;;10501362;28;20028;-80
2021/12/24 13:18:42;;;;;;;18.88;11.77;;;;;;;;;;10568703;28;20454;-81
2021/12/24 13:24:15;;;;;;;20.73;12.90;;;;;;;;;;10588768;28;20389;-80
2021/12/24 13:29:43;;;;;;;19.98;13.20;;;;;;;;;;10571981;28;20108;-80
2021/12/24 13:34:56;;;;;;;18.95;12.70;;;;;;;;;;10590310;28;20027;-80
2021/12/24 13:40:05;;;;;;;19.60;13.02;;;;;;;;;;10579951;28;20032;-80
2021/12/24 13:45:43;;;;;;;20.92;14.13;;;;;;;;;;10573118;28;20035;-80
2021/12/24 13:56:24;;;;;;;18.52;13.40;;;;;;;;;;10570864;28;20059;-80
2021/12/24 14:02:02;;;;;;;24.05;17.15;;;;;;;;;;10591168;28;20032;-80
2021/12/24 14:07:26;;;;;;;12.85;9.35;;;;;;;;;;10538645;28;20035;-80
2021/12/24 14:12:29;;;;;;;15.68;10.65;;;;;;;;;;10568467;28;20061;-80
2021/12/24 14:18:02;;;;;;;18.23;11.77;;;;;;;;;;10588236;28;20023;-80
2021/12/24 14:23:14;;;;;;;16.23;10.75;;;;;;;;;;10588791;28;20058;-80
2021/12/24 14:28:37;;;;;;;21.70;13.85;;;;;;;;;;10571962;28;20369;-80
2021/12/24 14:33:46;;;;;;;14.48;9.23;;;;;;;;;;10572641;28;20493;-80
2021/12/24 14:38:47;;;;;;;16.58;10.93;;;;;;;;;;10593530;27;20070;-80
2021/12/24 14:43:48;;;;;;;;;;;;;;;;;;10570069;28;20119;-79
2021/12/24 14:49:03;;;;;;;17.15;11.57;;;;;;;;;;10570539;28;20010;-80
2021/12/24 14:54:05;;;;;;;17.98;11.57;;;;;;;;;;10570189;28;20069;-80
2021/12/24 14:59:06;;;;;;;14.60;11.15;;;;;;;;;;10570210;28;20042;-80
2021/12/24 15:04:11;;;;;;;13.13;9.00;;;;;;;;;;10553496;28;20105;-80
2021/12/24 15:09:19;;;;;;;13.70;8.85;;;;;;;;;;10593174;28;20024;-80
2021/12/24 15:14:26;;;;;;;16.92;11.52;;;;;;;;;;10579130;28;20540;-80
2021/12/24 15:19:27;;;;;;;9.68;7.38;;;;;;;;;;10579002;28;20027;-81
2021/12/24 15:24:28;;;;;;;10.40;8.23;;;;;;;;;;10577977;28;20023;-80
2021/12/24 15:29:29;;;;;;;;;;;;;;;;;;10579758;28;20028;-80
2021/12/24 15:34:31;;;;;;;11.57;8.30;;;;;;;;;;10578283;28;19904;-80
2021/12/24 15:39:32;;;;;;;16.35;11.23;;;;;;;;;;10578104;28;20058;-80
2021/12/24 15:44:34;;;;;;;;;;;;;;;;;;10578604;28;20047;-81
2021/12/24 15:49:35;;;;;;;18.05;12.18;;;;;;;;;;10596339;28;20293;-80
2021/12/24 15:54:36;;;;;;;;;;;;;;;;;;10596857;28;20081;-80
2021/12/24 15:59:37;;;;;;;14.38;10.63;;;;;;;;;;10577977;28;19904;-80
2021/12/24 16:04:38;;;;;;;;;;;;;;;;;;10580544;28;20027;-81
2021/12/24 16:09:42;;;;;;;12.90;8.60;;;;;;;;;;10596835;28;19908;-80
2021/12/24 16:14:44;;;;;;;17.30;11.85;;;;;;;;;;10582587;28;20023;-80
2021/12/24 16:19:47;;;;;;;11.88;8.52;;;;;;;;;;10575936;28;20035;-80
2021/12/24 16:24:52;;;;;;;9.27;7.80;;;;;;;;;;10574753;28;20035;-80
2021/12/24 16:29:54;;;;;;;17.77;12.82;;;;;;;;;;10576008;28;20102;-81
2021/12/24 16:34:56;;;;;;;12.82;10.00;;;;;;;;;;10576386;28;20023;-80
2021/12/24 16:39:58;;;;;;;14.38;8.93;;;;;;;;;;10581788;28;20027;-79
2021/12/24 16:44:59;;;;;;;16.85;11.55;;;;;;;;;;10586766;28;20070;-80
2021/12/24 16:50:00;;;;;;;;;;;;;;;;;;10592565;28;20411;-80
2021/12/24 16:55:04;;;;;;;14.18;11.55;;;;;;;;;;10572963;28;19911;-80
2021/12/24 17:00:06;;;;;;;18.17;13.68;;;;;;;;;;10573633;28;20023;-80
2021/12/24 17:05:08;;;;;;;13.77;12.25;;;;;;;;;;10591149;28;20038;-79
2021/12/24 17:10:11;;;;;;;18.38;13.15;;;;;;;;;;10573008;28;20023;-80
2021/12/24 17:15:13;;;;;;;13.52;10.93;;;;;;;;;;10591290;28;20058;-80
2021/12/24 17:20:16;;;;;;;12.27;9.60;;;;;;;;;;10572334;28;20035;-80
2021/12/24 17:25:17;;;;;;;12.25;8.85;;;;;;;;;;10590047;28;20027;-80
2021/12/24 17:30:24;;;;;;;15.90;12.48;;;;;;;;;;10589886;28;20462;-80
2021/12/24 17:35:26;;;;;;;19.00;13.55;;;;;;;;;;10555142;28;20477;-80
2021/12/24 17:40:27;;;;;;;15.05;10.48;;;;;;;;;;10554659;28;20114;-80
2021/12/24 17:45:28;;;;;;;8.00;5.85;;;;;;;;;;10572058;28;20038;-80
2021/12/24 17:50:29;;;;;;;9.07;7.25;;;;;;;;;;10589567;28;20104;-80
2021/12/24 17:55:32;;;;;;;6.25;5.10;;;;;;;;;;10590002;28;20167;-80
2021/12/24 18:00:33;;;;;;;4.63;3.50;;;;;;;;;;10571306;28;20123;-80
2021/12/24 18:05:36;;;;;;;4.07;3.28;;;;;;;;;;10570728;28;20031;-79
2021/12/24 18:10:37;;;;;;;3.50;2.83;;;;;;;;;;10571596;28;20024;-80
2021/12/24 18:15:38;;;;;;;;;;;;;;;;;;10589922;28;20024;-79
2021/12/24 18:20:42;;;;;;;2.78;2.38;;;;;;;;;;10572295;28;19904;-80
2021/12/24 18:25:43;;;;;;;3.85;2.85;;;;;;;;;;10588677;28;20020;-80
2021/12/24 18:31:00;;;;;;;3.17;2.72;;;;;;;;;;10588776;28;20020;-81
2021/12/24 18:36:01;;;;;;;3.47;2.67;;;;;;;;;;10571111;28;20542;-81
2021/12/24 18:46:57;;;;;;;2.60;2.30;;;;;;;;;;10563970;27;20047;-80
2021/12/24 18:57:33;;;;;;;2.97;2.47;;;;;;;;;;10489901;28;20034;-80
2021/12/24 19:02:57;;;;;;;3.10;2.35;;;;;;;;;;10571786;28;20038;-80
2021/12/24 19:08:12;;;;;;;2.67;2.28;;;;;;;;;;10564746;28;20059;-80
2021/12/24 19:13:22;;;;;;;3.13;2.63;;;;;;;;;;10588514;28;20048;-80
2021/12/24 19:18:27;;;;;;;2.83;2.63;;;;;;;;;;10588151;28;20023;-80
2021/12/24 19:23:28;;;;;;;3.38;3.08;;;;;;;;;;10587758;28;20493;-80
2021/12/24 19:28:41;;;;;;;2.53;2.15;;;;;;;;;;10569285;28;20512;-80
2021/12/24 19:33:46;;;;;;;3.58;3.28;;;;;;;;;;10569206;28;20366;-80
2021/12/24 19:38:49;;;;;;;2.90;2.60;;;;;;;;;;10570255;28;20080;-81
2021/12/24 19:43:54;;;;;;;4.55;4.18;;;;;;;;;;10570529;28;20030;-80
2021/12/24 19:49:01;;;;;;;2.92;2.63;;;;;;;;;;10569863;28;20401;-80
2021/12/24 19:54:07;;;;;;;2.58;2.38;;;;;;;;;;10572957;28;20035;-81
2021/12/24 19:59:20;;;;;;;3.75;2.88;;;;;;;;;;10576821;28;20031;-81
2021/12/24 20:04:23;;;;;;;2.63;2.42;;;;;;;;;;10578608;28;20023;-81
2021/12/24 20:09:25;;;;;;;3.50;3.20;;;;;;;;;;10577502;28;20048;-81
2021/12/24 20:14:29;;;;;;;2.90;2.60;;;;;;;;;;10595996;28;20072;-80
2021/12/24 20:19:36;;;;;;;2.97;2.67;;;;;;;;;;10578620;28;20435;-80
2021/12/24 20:24:48;;;;;;;3.35;2.97;;;;;;;;;;10577512;28;20024;-81
2021/12/24 20:29:49;;;;;;;5.40;4.90;;;;;;;;;;10576557;28;20454;-81
2021/12/24 20:34:52;;;;;;;;;;;;;;;;;;10580155;28;20389;-81
2021/12/24 20:39:54;;;;;;;3.60;3.30;;;;;;;;;;10600763;28;20522;-79
2021/12/24 20:44:58;;;;;;;2.33;2.08;;;;;;;;;;10591252;28;20027;-81
2021/12/24 20:50:04;;;;;;;2.50;1.90;;;;;;;;;;10576168;28;20027;-80
2021/12/24 20:55:08;;;;;;;2.13;1.73;;;;;;;;;;10602401;27;20058;-80
2021/12/24 21:00:18;;;;;;;2.15;1.95;;;;;;;;;;10573403;28;20492;-79
2021/12/24 21:05:23;;;;;;;2.53;2.15;;;;;;;;;;10572889;28;20039;-80
2021/12/24 21:10:32;;;;;;;2.90;2.50;;;;;;;;;;10571847;28;20434;-80
2021/12/24 21:15:33;;;;;;;3.25;2.55;;;;;;;;;;10572654;28;20106;-80
2021/12/24 21:20:34;;;;;;;;;;;;;;;;;;10573428;28;20031;-80
2021/12/24 21:25:35;;;;;;;2.97;2.67;;;;;;;;;;10574113;28;20003;-80
2021/12/24 21:30:39;;;;;;;2.70;2.40;;;;;;;;;;10572633;28;20031;-80
2021/12/24 21:35:46;;;;;;;3.17;2.88;;;;;;;;;;10573151;28;20039;-80
2021/12/24 21:40:50;;;;;;;4.65;4.25;;;;;;;;;;10571632;28;20123;-80
2021/12/24 21:45:54;;;;;;;3.95;3.55;;;;;;;;;;10571510;28;20055;-80
2021/12/24 21:51:00;;;;;;;4.43;4.00;;;;;;;;;;10570709;28;20035;-79
2021/12/24 21:56:14;;;;;;;3.92;2.97;;;;;;;;;;10570872;28;20109;-80
2021/12/24 22:01:22;;;;;;;5.47;4.97;;;;;;;;;;10571337;28;20477;-80
2021/12/24 22:11:46;;;;;;;3.95;3.42;;;;;;;;;;10590597;28;20530;-80
2021/12/24 22:16:50;;;;;;;5.70;4.50;;;;;;;;;;10569989;28;20031;-80
2021/12/24 22:21:58;;;;;;;4.28;3.20;;;;;;;;;;10570731;28;20028;-81
2021/12/24 22:27:02;;;;;;;4.40;4.00;;;;;;;;;;10570581;28;20027;-80
2021/12/24 22:32:03;;;;;;;3.10;2.42;;;;;;;;;;10572715;28;20115;-80
2021/12/24 22:37:09;;;;;;;;;;;;;;;;;;10571233;28;20031;-80
2021/12/24 22:42:18;;;;;;;3.75;2.75;;;;;;;;;;10572107;28;20002;-80
2021/12/24 22:47:22;;;;;;;3.70;3.30;;;;;;;;;;10571075;28;20024;-80
2021/12/24 22:52:45;;;;;;;2.83;2.45;;;;;;;;;;10574060;28;20457;-81
2021/12/24 22:57:47;;;;;;;4.80;4.00;;;;;;;;;;10573079;28;20060;-81
2021/12/24 23:03:00;;;;;;;3.42;3.13;;;;;;;;;;10599174;27;20047;-81
2021/12/24 23:08:01;;;;;;;3.38;3.00;;;;;;;;;;10570266;28;20035;-80
2021/12/24 23:13:02;;;;;;;;;;;;;;;;;;10570841;28;20096;-80
2021/12/24 23:18:08;;;;;;;3.03;2.50;;;;;;;;;;10569073;28;19990;-81
2021/12/24 23:23:11;;;;;;;3.47;3.17;;;;;;;;;;10571190;28;20062;-80
2021/12/24 23:28:21;;;;;;;3.20;2.85;;;;;;;;;;10570215;28;20034;-81
2021/12/24 23:33:31;;;;;;;4.57;4.10;;;;;;;;;;10579154;28;20020;-80
2021/12/24 23:38:37;;;;;;;4.25;3.72;;;;;;;;;;10578582;28;20123;-80
2021/12/24 23:43:47;;;;;;;4.82;4.43;;;;;;;;;;10576208;28;20069;-80
2021/12/24 23:48:48;;;;;;;3.60;3.30;;;;;;;;;;10576444;28;20050;-80
2021/12/24 23:53:51;;;;;;;4.93;4.53;;;;;;;;;;10577009;28;20056;-80
2021/12/24 23:58:56;;;;;;;4.10;3.70;;;;;;;;;;10577171;28;20090;-80
